createdAt,value
2022-11-29T00:02:04.721Z,39.85
2022-11-29T00:04:33.110Z,33.40
2022-11-29T00:07:01.375Z,31.75
2022-11-29T00:09:29.602Z,29.20
2022-11-29T00:11:57.964Z,27.70
2022-11-29T00:14:27.696Z,23.27
2022-11-29T00:16:59.484Z,23.27
2022-11-29T00:19:28.199Z,20.75
2022-11-29T00:21:56.567Z,22.45
2022-11-29T00:24:24.743Z,28.70
2022-11-29T00:26:53.097Z,31.55
2022-11-29T00:29:21.720Z,31.05
2022-11-29T00:31:50.026Z,30.90
2022-11-29T00:34:18.170Z,32.50
2022-11-29T00:36:46.442Z,33.92
2022-11-29T00:39:14.863Z,36.17
2022-11-29T00:41:43.367Z,38.63
2022-11-29T00:44:16.729Z,35.70
2022-11-29T00:46:48.931Z,35.15
2022-11-29T00:49:17.778Z,36.88
2022-11-29T00:51:46.991Z,36.45
2022-11-29T00:54:15.333Z,34.97
2022-11-29T00:56:43.682Z,35.80
2022-11-29T00:59:11.983Z,36.75
2022-11-29T01:01:40.288Z,35.72
2022-11-29T01:04:08.434Z,34.80
2022-11-29T01:06:36.739Z,36.83
2022-11-29T01:09:05.983Z,35.70
2022-11-29T01:11:34.427Z,35.42
2022-11-29T01:14:04.075Z,32.95
2022-11-29T01:16:32.802Z,34.00
2022-11-29T01:19:01.204Z,34.08
2022-11-29T01:21:29.740Z,35.92
2022-11-29T01:23:58.041Z,36.28
2022-11-29T01:26:28.937Z,33.80
2022-11-29T01:28:58.669Z,34.67
2022-11-29T01:31:35.264Z,38.97
2022-11-29T01:34:05.549Z,34.97
2022-11-29T01:36:35.136Z,36.55
2022-11-29T01:39:05.677Z,34.80
2022-11-29T01:41:36.351Z,33.00
2022-11-29T01:44:06.618Z,32.63
2022-11-29T01:46:38.151Z,31.95
2022-11-29T01:49:13.430Z,35.80
2022-11-29T01:51:45.383Z,33.42
2022-11-29T01:54:14.464Z,32.35
2022-11-29T01:56:43.790Z,36.20
2022-11-29T01:59:16.388Z,36.45
2022-11-29T02:01:44.786Z,34.40
2022-11-29T02:04:13.197Z,36.55
2022-11-29T02:06:43.059Z,34.08
2022-11-29T02:09:23.218Z,31.70
2022-11-29T02:12:03.798Z,35.33
2022-11-29T02:14:58.143Z,33.03
2022-11-29T02:17:52.616Z,34.00
2022-11-29T02:21:05.470Z,33.83
2022-11-29T02:23:45.539Z,34.00
2022-11-29T02:26:22.702Z,31.80
2022-11-29T02:29:09.313Z,31.90
2022-11-29T02:32:03.202Z,30.08
2022-11-29T02:34:52.698Z,28.20
2022-11-29T02:37:44.055Z,29.42
2022-11-29T02:40:36.031Z,29.77
2022-11-29T02:43:22.625Z,30.23
2022-11-29T02:45:50.897Z,31.65
2022-11-29T02:48:53.651Z,31.00
2022-11-29T02:54:14.532Z,29.45
2022-11-29T02:57:02.722Z,29.15
2022-11-29T03:00:07.957Z,28.48
2022-11-29T03:02:52.142Z,28.63
2022-11-29T03:05:49.595Z,27.98
2022-11-29T03:08:52.879Z,28.80
2022-11-29T03:11:38.764Z,28.45
2022-11-29T03:14:26.146Z,28.83
2022-11-29T03:17:09.389Z,29.58
2022-11-29T03:20:22.280Z,29.45
2022-11-29T03:23:02.698Z,28.48
2022-11-29T03:25:39.380Z,28.88
2022-11-29T03:28:18.527Z,27.10
2022-11-29T03:31:12.054Z,23.10
2022-11-29T03:33:59.544Z,26.13
2022-11-29T03:36:50.391Z,23.90
2022-11-29T03:39:49.576Z,21.98
2022-11-29T03:42:38.040Z,21.67
2022-11-29T03:45:09.279Z,24.60
2022-11-29T03:48:00.613Z,22.98
2022-11-29T03:50:36.953Z,21.52
2022-11-29T03:53:29.528Z,18.75
2022-11-29T03:59:03.802Z,16.80
2022-11-29T04:01:50.393Z,16.58
2022-11-29T04:04:49.458Z,17.17
2022-11-29T04:07:54.596Z,15.43
2022-11-29T04:10:44.289Z,16.17
2022-11-29T04:13:24.938Z,16.35
2022-11-29T04:16:22.325Z,14.38
2022-11-29T04:19:11.871Z,17.13
2022-11-29T04:21:49.446Z,14.73
2022-11-29T04:24:42.481Z,15.13
2022-11-29T04:27:35.736Z,14.88
2022-11-29T04:30:13.626Z,15.32
2022-11-29T04:32:53.878Z,15.68
2022-11-29T04:35:30.022Z,14.93
2022-11-29T04:38:01.257Z,13.65
2022-11-29T04:40:47.933Z,16.38
2022-11-29T04:43:51.783Z,14.73
2022-11-29T04:46:47.697Z,14.77
2022-11-29T04:49:40.278Z,15.73
2022-11-29T04:52:27.818Z,16.88
2022-11-29T04:55:33.132Z,14.95
2022-11-29T04:58:13.486Z,13.85
2022-11-29T05:01:06.888Z,14.20
2022-11-29T05:03:55.440Z,17.17
2022-11-29T05:06:30.686Z,15.30
2022-11-29T05:09:20.837Z,18.60
2022-11-29T05:11:51.963Z,18.92
2022-11-29T05:14:32.324Z,17.73
2022-11-29T05:17:31.314Z,17.73
2022-11-29T05:20:17.292Z,19.33
2022-11-29T05:22:54.795Z,19.17
2022-11-29T05:25:23.026Z,19.25
2022-11-29T05:28:10.065Z,18.60
2022-11-29T05:31:00.149Z,17.75
2022-11-29T05:34:05.445Z,18.10
2022-11-29T05:36:41.506Z,18.08
2022-11-29T05:39:32.993Z,17.02
2022-11-29T05:42:32.926Z,16.95
2022-11-29T05:45:17.522Z,18.95
2022-11-29T05:48:13.813Z,15.88
2022-11-29T05:50:50.034Z,16.30
2022-11-29T05:53:36.780Z,17.15
2022-11-29T05:56:42.348Z,18.30
2022-11-29T05:59:32.694Z,16.20
2022-11-29T06:02:35.711Z,18.10
2022-11-29T06:05:17.908Z,16.13
2022-11-29T06:08:07.901Z,17.17
2022-11-29T06:10:40.490Z,17.88
2022-11-29T06:13:38.073Z,19.67
2022-11-29T06:16:34.917Z,17.88
2022-11-29T06:19:31.005Z,15.45
2022-11-29T06:22:20.868Z,16.20
2022-11-29T06:25:24.349Z,17.02
2022-11-29T06:28:14.094Z,17.67
2022-11-29T06:31:24.195Z,16.15
2022-11-29T06:34:02.922Z,17.13
2022-11-29T06:37:01.216Z,18.27
2022-11-29T06:39:29.982Z,16.02
2022-11-29T06:41:58.109Z,18.50
2022-11-29T06:44:26.840Z,17.08
2022-11-29T06:47:06.509Z,17.00
2022-11-29T06:50:07.285Z,17.77
2022-11-29T06:52:49.075Z,19.42
2022-11-29T06:55:43.262Z,16.67
2022-11-29T06:58:48.785Z,19.55
2022-11-29T07:01:24.443Z,20.35
2022-11-29T07:04:11.164Z,21.85
2022-11-29T07:06:39.827Z,22.02
2022-11-29T07:09:18.764Z,21.30
2022-11-29T07:11:48.533Z,21.88
2022-11-29T07:14:17.221Z,19.38
2022-11-29T07:17:26.285Z,17.95
2022-11-29T07:20:03.884Z,18.02
2022-11-29T07:22:38.226Z,16.65
2022-11-29T07:25:18.490Z,16.50
2022-11-29T07:28:23.563Z,17.02
2022-11-29T07:30:55.810Z,13.82
2022-11-29T07:36:27.090Z,14.82
2022-11-29T07:39:13.752Z,16.38
2022-11-29T07:42:08.012Z,12.25
2022-11-29T07:45:12.029Z,13.68
2022-11-29T07:47:40.485Z,13.70
2022-11-29T07:50:09.328Z,13.20
2022-11-29T07:52:37.614Z,14.80
2022-11-29T07:55:06.547Z,16.67
2022-11-29T07:57:34.699Z,19.58
2022-11-29T08:00:03.225Z,18.27
2022-11-29T08:02:39.537Z,17.55
2022-11-29T08:05:09.235Z,13.32
2022-11-29T08:07:41.860Z,12.80
2022-11-29T08:10:15.714Z,9.85
2022-11-29T08:12:45.918Z,10.98
2022-11-29T08:15:14.506Z,11.70
2022-11-29T08:17:42.827Z,10.70
2022-11-29T08:20:12.338Z,9.98
2022-11-29T08:22:40.785Z,10.65
2022-11-29T08:25:10.314Z,9.95
2022-11-29T08:27:39.276Z,9.15
2022-11-29T08:30:08.571Z,8.75
2022-11-29T08:32:36.703Z,10.90
2022-11-29T08:35:05.062Z,9.85
2022-11-29T08:37:33.533Z,8.85
2022-11-29T08:40:01.841Z,9.45
2022-11-29T08:42:29.945Z,9.95
2022-11-29T08:44:58.199Z,8.98
2022-11-29T08:47:26.707Z,10.75
2022-11-29T08:49:55.295Z,11.57
2022-11-29T08:52:23.494Z,11.90
2022-11-29T08:54:51.951Z,10.15
2022-11-29T09:00:11.955Z,9.48
2022-11-29T09:05:09.799Z,12.73
2022-11-29T09:07:38.719Z,12.38
2022-11-29T09:12:40.218Z,13.80
2022-11-29T09:15:10.450Z,14.35
2022-11-29T09:17:38.676Z,14.77
2022-11-29T09:20:07.692Z,13.70
2022-11-29T09:22:36.106Z,14.07
2022-11-29T09:25:04.535Z,16.23
2022-11-29T09:27:33.044Z,14.25
2022-11-29T09:30:01.175Z,15.00
2022-11-29T09:32:29.382Z,16.83
2022-11-29T09:34:57.633Z,13.80
2022-11-29T09:37:25.848Z,15.77
2022-11-29T09:39:54.075Z,14.23
2022-11-29T09:42:56.762Z,13.05
2022-11-29T09:45:33.277Z,16.38
2022-11-29T09:48:28.954Z,15.25
2022-11-29T09:51:46.225Z,15.32
2022-11-29T09:54:36.134Z,14.63
2022-11-29T09:57:10.512Z,15.05
2022-11-29T09:59:46.908Z,14.38
2022-11-29T10:02:38.688Z,14.85
2022-11-29T10:05:17.774Z,11.82
2022-11-29T10:08:09.472Z,12.65
2022-11-29T10:10:46.605Z,13.77
2022-11-29T10:13:25.628Z,11.88
2022-11-29T10:16:25.825Z,13.27
2022-11-29T10:19:05.021Z,12.30
2022-11-29T10:21:39.226Z,12.73
2022-11-29T10:24:18.471Z,12.52
2022-11-29T10:26:47.552Z,16.33
2022-11-29T10:29:17.321Z,14.35
2022-11-29T10:31:47.965Z,13.88
2022-11-29T10:34:21.670Z,13.32
2022-11-29T10:36:57.150Z,15.45
2022-11-29T10:39:37.438Z,12.93
2022-11-29T10:42:08.848Z,9.75
2022-11-29T10:44:37.693Z,10.80
2022-11-29T10:47:10.673Z,10.82
2022-11-29T10:49:39.927Z,13.48
2022-11-29T10:52:21.942Z,12.15
2022-11-29T10:54:54.531Z,10.75
2022-11-29T10:57:23.977Z,11.75
2022-11-29T11:00:09.544Z,11.05
2022-11-29T11:02:38.559Z,8.18
2022-11-29T11:05:15.054Z,10.15
2022-11-29T11:07:43.844Z,7.65
2022-11-29T11:10:32.255Z,8.70
2022-11-29T11:13:07.250Z,6.25
2022-11-29T11:15:35.791Z,6.63
2022-11-29T11:18:07.525Z,7.43
2022-11-29T11:20:42.360Z,7.45
2022-11-29T11:23:30.532Z,6.13
2022-11-29T11:26:00.456Z,6.68
2022-11-29T11:28:37.287Z,5.82
2022-11-29T11:31:08.974Z,4.72
2022-11-29T11:38:54.096Z,5.18
2022-11-29T11:41:28.296Z,5.88
2022-11-29T11:44:00.302Z,6.18
2022-11-29T11:46:49.639Z,6.10
2022-11-29T11:49:36.402Z,5.68
2022-11-29T11:52:07.900Z,5.32
2022-11-29T11:54:37.531Z,5.55
2022-11-29T11:57:06.250Z,5.20
2022-11-29T11:59:34.957Z,5.55
2022-11-29T12:02:03.525Z,5.72
2022-11-29T12:04:36.454Z,5.03
2022-11-29T12:07:45.042Z,6.10
2022-11-29T12:10:23.214Z,7.30
2022-11-29T12:12:52.487Z,7.32
2022-11-29T12:15:27.875Z,7.20
2022-11-29T12:18:04.698Z,8.05
2022-11-29T12:21:05.991Z,5.55
2022-11-29T12:23:44.246Z,4.60
2022-11-29T12:26:41.185Z,5.25
2022-11-29T12:29:15.851Z,5.60
2022-11-29T12:31:52.912Z,4.85
2022-11-29T12:34:42.954Z,5.70
2022-11-29T12:37:37.656Z,5.65
2022-11-29T12:40:12.173Z,5.47
2022-11-29T12:42:46.989Z,4.95
2022-11-29T12:45:46.310Z,5.35
2022-11-29T12:48:23.867Z,4.85
2022-11-29T12:51:01.891Z,5.82
2022-11-29T12:54:15.307Z,7.03
2022-11-29T12:57:17.496Z,6.63
2022-11-29T13:00:01.841Z,5.97
2022-11-29T13:02:41.996Z,6.82
2022-11-29T13:05:33.265Z,10.73
2022-11-29T13:08:24.709Z,5.10
2022-11-29T13:10:59.333Z,4.78
2022-11-29T13:13:46.756Z,5.68
2022-11-29T13:16:26.337Z,6.20
2022-11-29T13:19:16.238Z,6.20
2022-11-29T13:22:10.892Z,4.70
2022-11-29T13:24:45.339Z,4.45
2022-11-29T13:27:23.885Z,5.32
2022-11-29T13:29:53.846Z,5.07
2022-11-29T13:32:32.340Z,5.70
2022-11-29T13:35:28.102Z,5.55
2022-11-29T13:38:07.903Z,4.53
2022-11-29T13:40:54.952Z,4.35
2022-11-29T13:43:57.173Z,6.10
2022-11-29T13:49:00.023Z,5.07
2022-11-29T13:51:37.225Z,7.47
2022-11-29T13:54:31.321Z,10.43
2022-11-29T13:57:10.835Z,8.40
2022-11-29T13:59:47.121Z,7.07
2022-11-29T14:02:30.443Z,4.55
2022-11-29T14:04:59.099Z,5.00
2022-11-29T14:07:27.444Z,7.90
2022-11-29T14:10:28.628Z,5.85
2022-11-29T14:12:58.635Z,6.13
2022-11-29T14:15:30.080Z,5.13
2022-11-29T14:18:01.585Z,4.63
2022-11-29T14:20:29.877Z,4.85
2022-11-29T14:23:06.964Z,5.65
2022-11-29T14:25:51.572Z,4.85
2022-11-29T14:28:23.285Z,7.32
2022-11-29T14:30:56.249Z,5.13
2022-11-29T14:33:58.010Z,6.20
2022-11-29T14:36:39.217Z,4.50
2022-11-29T14:39:42.273Z,9.35
2022-11-29T14:42:22.658Z,6.25
2022-11-29T14:44:54.181Z,5.95
2022-11-29T14:47:27.801Z,5.75
2022-11-29T14:49:58.234Z,5.20
2022-11-29T14:52:38.377Z,7.85
2022-11-29T14:55:28.584Z,4.60
2022-11-29T14:58:02.789Z,5.45
2022-11-29T15:00:55.293Z,3.88
2022-11-29T15:03:35.238Z,5.55
2022-11-29T15:06:09.452Z,5.53
2022-11-29T15:09:09.415Z,8.93
2022-11-29T15:11:58.330Z,7.63
2022-11-29T15:14:40.763Z,5.05
2022-11-29T15:17:49.334Z,6.60
2022-11-29T15:20:54.990Z,5.75
2022-11-29T15:23:23.372Z,4.78
2022-11-29T15:26:00.994Z,5.20
2022-11-29T15:28:31.013Z,4.85
2022-11-29T15:31:09.674Z,5.15
2022-11-29T15:33:41.940Z,6.00
2022-11-29T15:37:02.895Z,5.30
2022-11-29T15:39:37.829Z,4.78
2022-11-29T15:42:12.539Z,4.95
2022-11-29T15:44:48.933Z,4.53
2022-11-29T15:47:25.853Z,4.13
2022-11-29T15:49:55.182Z,7.32
2022-11-29T15:52:34.186Z,10.20
2022-11-29T15:55:06.114Z,8.25
2022-11-29T15:57:41.549Z,5.38
2022-11-29T16:00:17.348Z,6.45
2022-11-29T16:03:02.732Z,4.03
2022-11-29T16:05:40.419Z,4.65
2022-11-29T16:08:17.188Z,8.23
2022-11-29T16:10:50.892Z,12.80
2022-11-29T16:13:40.544Z,33.70
2022-11-29T16:16:11.769Z,6.88
2022-11-29T16:18:42.701Z,11.18
2022-11-29T16:21:29.575Z,4.73
2022-11-29T16:23:58.753Z,12.10
2022-11-29T16:26:40.585Z,17.15
2022-11-29T16:29:29.286Z,7.28
2022-11-29T16:31:58.183Z,4.40
2022-11-29T16:34:31.327Z,8.00
2022-11-29T16:37:20.937Z,10.52
2022-11-29T16:39:52.237Z,6.13
2022-11-29T16:42:32.296Z,4.45
2022-11-29T16:45:07.556Z,4.18
2022-11-29T16:47:53.422Z,6.75
2022-11-29T16:50:23.186Z,4.95
2022-11-29T16:52:56.313Z,6.03
2022-11-29T16:55:25.584Z,5.93
2022-11-29T16:57:53.927Z,7.07
2022-11-29T17:00:35.585Z,6.65
2022-11-29T17:03:04.120Z,6.65
2022-11-29T17:05:32.483Z,5.15
2022-11-29T17:08:01.591Z,6.65
2022-11-29T17:10:30.010Z,22.45
2022-11-29T17:12:58.546Z,13.32
2022-11-29T17:15:26.932Z,10.15
2022-11-29T17:17:55.081Z,8.90
2022-11-29T17:20:23.550Z,13.50
2022-11-29T17:22:51.689Z,23.95
2022-11-29T17:26:15.477Z,8.27
2022-11-29T17:28:45.415Z,4.65
2022-11-29T17:31:16.547Z,5.20
2022-11-29T17:33:45.193Z,5.85
2022-11-29T17:36:15.944Z,6.22
2022-11-29T17:38:45.688Z,7.10
2022-11-29T17:41:25.057Z,6.72
2022-11-29T17:43:55.376Z,6.70
2022-11-29T17:46:32.370Z,6.80
2022-11-29T17:49:03.184Z,10.43
2022-11-29T17:54:21.177Z,6.78
2022-11-29T17:56:49.917Z,7.10
2022-11-29T17:59:18.568Z,7.32
2022-11-29T18:01:47.476Z,9.40
2022-11-29T18:04:16.096Z,8.88
2022-11-29T18:06:45.127Z,7.78
2022-11-29T18:09:13.777Z,31.60
2022-11-29T18:11:48.068Z,60.50
2022-11-29T18:14:23.468Z,24.73
2022-11-29T18:16:52.624Z,27.73
2022-11-29T18:19:22.930Z,39.88
2022-11-29T18:21:51.765Z,47.20
2022-11-29T18:24:20.415Z,22.77
2022-11-29T18:26:49.186Z,15.43
2022-11-29T18:29:17.356Z,12.48
2022-11-29T18:31:47.011Z,11.65
2022-11-29T18:34:15.587Z,11.90
2022-11-29T18:36:48.897Z,45.70
2022-11-29T18:39:19.921Z,50.92
2022-11-29T18:41:51.244Z,64.18
2022-11-29T18:44:21.945Z,48.97
2022-11-29T18:46:50.572Z,49.35
2022-11-29T18:49:19.405Z,33.25
2022-11-29T18:51:48.830Z,15.90
2022-11-29T18:54:18.730Z,16.27
2022-11-29T18:56:47.480Z,21.73
2022-11-29T18:59:24.460Z,13.88
2022-11-29T19:01:53.055Z,13.50
2022-11-29T19:04:22.003Z,12.10
2022-11-29T19:06:50.543Z,14.30
2022-11-29T19:09:21.707Z,12.80
2022-11-29T19:11:51.235Z,11.57
2022-11-29T19:14:20.259Z,10.75
2022-11-29T19:16:49.885Z,11.07
2022-11-29T19:19:18.438Z,13.07
2022-11-29T19:21:47.291Z,14.05
2022-11-29T19:24:17.225Z,14.77
2022-11-29T19:26:47.549Z,14.77
2022-11-29T19:29:16.490Z,14.75
2022-11-29T19:31:44.769Z,16.73
2022-11-29T19:34:13.059Z,20.73
2022-11-29T19:36:42.244Z,27.38
2022-11-29T19:39:11.740Z,26.58
2022-11-29T19:41:40.217Z,25.38
2022-11-29T19:44:09.122Z,23.05
2022-11-29T19:46:47.666Z,25.20
2022-11-29T19:49:16.399Z,21.45
2022-11-29T19:51:44.852Z,19.77
2022-11-29T19:54:13.341Z,18.23
2022-11-29T19:56:41.885Z,16.95
2022-11-29T19:59:10.443Z,14.50
2022-11-29T20:01:41.883Z,13.48
2022-11-29T20:04:12.555Z,14.48
2022-11-29T20:06:41.685Z,10.43
2022-11-29T20:09:10.695Z,11.52
2022-11-29T20:11:39.198Z,9.80
2022-11-29T20:14:08.306Z,10.65
2022-11-29T20:16:37.021Z,10.40
2022-11-29T20:19:12.569Z,8.75
2022-11-29T20:21:47.225Z,8.05
2022-11-29T20:24:17.562Z,9.55
2022-11-29T20:26:48.790Z,9.68
2022-11-29T20:29:17.629Z,13.02
2022-11-29T20:31:50.743Z,14.18
2022-11-29T20:34:20.701Z,13.80
2022-11-29T20:37:13.721Z,10.70
2022-11-29T20:40:14.704Z,9.43
2022-11-29T20:43:03.600Z,12.70
2022-11-29T20:45:32.494Z,11.52
2022-11-29T20:48:23.098Z,11.40
2022-11-29T20:50:59.111Z,7.57
2022-11-29T20:53:35.353Z,8.13
2022-11-29T20:56:05.502Z,13.40
2022-11-29T20:58:34.671Z,14.95
2022-11-29T21:01:12.409Z,7.93
2022-11-29T21:03:41.477Z,8.13
2022-11-29T21:06:10.004Z,7.57
2022-11-29T21:08:38.644Z,8.90
2022-11-29T21:11:09.684Z,9.02
2022-11-29T21:13:38.457Z,7.38
2022-11-29T21:16:07.268Z,8.18
2022-11-29T21:18:36.286Z,7.40
2022-11-29T21:21:36.919Z,9.15
2022-11-29T21:24:05.401Z,9.50
2022-11-29T21:26:50.002Z,10.07
2022-11-29T21:29:23.184Z,11.40
2022-11-29T21:31:54.547Z,10.98
2022-11-29T21:34:23.149Z,11.05
2022-11-29T21:36:57.452Z,11.98
2022-11-29T21:39:32.513Z,12.95
2022-11-29T21:42:02.154Z,13.52
2022-11-29T21:44:30.634Z,15.35
2022-11-29T21:46:59.160Z,14.20
2022-11-29T21:49:27.705Z,14.30
2022-11-29T21:51:57.477Z,15.85
2022-11-29T21:54:30.428Z,15.10
2022-11-29T21:56:59.284Z,15.32
2022-11-29T21:59:27.777Z,13.50
2022-11-29T22:01:56.816Z,14.93
2022-11-29T22:04:25.222Z,13.45
2022-11-29T22:06:53.907Z,12.73
2022-11-29T22:09:22.327Z,14.40
2022-11-29T22:11:51.010Z,14.27
2022-11-29T22:14:19.690Z,16.88
2022-11-29T22:16:56.352Z,15.90
2022-11-29T22:19:34.794Z,21.40
2022-11-29T22:22:05.449Z,17.70
2022-11-29T22:24:36.747Z,14.27
2022-11-29T22:27:05.484Z,15.35
2022-11-29T22:29:34.121Z,14.10
2022-11-29T22:32:02.570Z,13.38
2022-11-29T22:34:30.892Z,14.00
2022-11-29T22:36:59.319Z,14.15
2022-11-29T22:39:27.928Z,13.50
2022-11-29T22:41:56.315Z,15.38
2022-11-29T22:44:25.595Z,14.27
2022-11-29T22:46:54.380Z,21.65
2022-11-29T22:49:23.024Z,21.33
2022-11-29T22:51:51.629Z,28.90
2022-11-29T22:54:20.031Z,42.40
2022-11-29T22:56:48.923Z,43.28
2022-11-29T22:59:17.330Z,42.65
2022-11-29T23:01:45.753Z,41.13
2022-11-29T23:04:14.339Z,38.05
2022-11-29T23:06:45.352Z,40.00
2022-11-29T23:09:18.164Z,33.20
2022-11-29T23:11:50.280Z,40.30
2022-11-29T23:14:19.735Z,40.75
2022-11-29T23:16:47.874Z,39.58
2022-11-29T23:19:17.972Z,41.50
2022-11-29T23:21:46.599Z,43.35
2022-11-29T23:24:16.612Z,45.28
2022-11-29T23:26:48.230Z,46.75
2022-11-29T23:29:19.285Z,57.08
2022-11-29T23:31:49.471Z,49.45
2022-11-29T23:34:17.928Z,45.70
2022-11-29T23:36:51.339Z,50.15
2022-11-29T23:39:21.508Z,46.88
2022-11-29T23:41:49.840Z,46.30
2022-11-29T23:44:18.082Z,41.03
2022-11-29T23:46:46.932Z,46.17
2022-11-29T23:49:15.502Z,47.42
2022-11-29T23:51:43.850Z,42.58
2022-11-29T23:54:12.088Z,39.55
2022-11-29T23:56:40.480Z,36.15
2022-11-29T23:59:08.628Z,39.00
